Terminal Aerodrome Forecast
Issued by NWS

Home | Current Version | Previous Version | Text Only | Print | Product List | Glossary Off
Versions: 1 2 3 4 5 6 7 8 9 10 11 12 13 14 15 16 17 18 19 20 21

000
FTUS43 KGRB 171606 AAA
TAFATW
TAF AMD
KATW 171606Z 1716/1812 36008KT 1SM BR VV002
      TEMPO 1716/1718 3SM -DZ BR OVC004
     FM171800 36007G14KT 4SM -DZ BR OVC003
     FM180400 30004KT P6SM BKN010
     FM180700 27004KT P6SM SCT015
     FM180900 26004KT 3SM BR SCT015=

USA.gov is the U.S. government's official web portal to all federal, state and local government web resources and services.